sensor_id;sensor_type;location;lat;lon;timestamp;P1;durP1;ratioP1;P2;durP2;ratioP2
47289;SDS011;33197;52.524;13.444;2022-11-04T00:01:16;12.25;;;6.65;;
47289;SDS011;33197;52.524;13.444;2022-11-04T00:03:43;11.70;;;6.45;;
47289;SDS011;33197;52.524;13.444;2022-11-04T00:06:11;11.88;;;5.93;;
47289;SDS011;33197;52.524;13.444;2022-11-04T00:08:38;17.00;;;6.25;;
47289;SDS011;33197;52.524;13.444;2022-11-04T00:11:05;11.43;;;5.88;;
47289;SDS011;33197;52.524;13.444;2022-11-04T00:13:51;19.65;;;6.63;;
47289;SDS011;33197;52.524;13.444;2022-11-04T00:16:18;23.67;;;7.82;;
47289;SDS011;33197;52.524;13.444;2022-11-04T00:19:04;16.98;;;6.43;;
47289;SDS011;33197;52.524;13.444;2022-11-04T00:21:31;14.07;;;6.28;;
47289;SDS011;33197;52.524;13.444;2022-11-04T00:24:17;12.88;;;5.82;;
47289;SDS011;33197;52.524;13.444;2022-11-04T00:27:03;13.00;;;5.55;;
47289;SDS011;33197;52.524;13.444;2022-11-04T00:29:49;13.35;;;6.38;;
47289;SDS011;33197;52.524;13.444;2022-11-04T00:32:16;9.98;;;6.22;;
47289;SDS011;33197;52.524;13.444;2022-11-04T00:35:02;13.10;;;6.35;;
47289;SDS011;33197;52.524;13.444;2022-11-04T00:37:29;13.70;;;6.68;;
47289;SDS011;33197;52.524;13.444;2022-11-04T00:39:56;12.20;;;6.85;;
47289;SDS011;33197;52.524;13.444;2022-11-04T00:42:23;16.20;;;6.82;;
47289;SDS011;33197;52.524;13.444;2022-11-04T00:44:50;10.52;;;6.13;;
47289;SDS011;33197;52.524;13.444;2022-11-04T00:47:17;11.80;;;6.38;;
47289;SDS011;33197;52.524;13.444;2022-11-04T00:49:44;13.70;;;6.93;;
47289;SDS011;33197;52.524;13.444;2022-11-04T00:52:12;10.35;;;6.47;;
47289;SDS011;33197;52.524;13.444;2022-11-04T00:54:39;10.80;;;6.55;;
47289;SDS011;33197;52.524;13.444;2022-11-04T00:57:09;12.68;;;6.82;;
47289;SDS011;33197;52.524;13.444;2022-11-04T00:59:37;18.58;;;7.00;;
47289;SDS011;33197;52.524;13.444;2022-11-04T01:02:05;14.32;;;6.57;;
47289;SDS011;33197;52.524;13.444;2022-11-04T01:04:33;13.10;;;6.40;;
47289;SDS011;33197;52.524;13.444;2022-11-04T01:07:00;13.10;;;6.68;;
47289;SDS011;33197;52.524;13.444;2022-11-04T01:09:28;13.15;;;7.45;;
47289;SDS011;33197;52.524;13.444;2022-11-04T01:11:55;13.60;;;7.32;;
47289;SDS011;33197;52.524;13.444;2022-11-04T01:14:22;18.52;;;7.05;;
47289;SDS011;33197;52.524;13.444;2022-11-04T01:16:49;12.38;;;6.38;;
47289;SDS011;33197;52.524;13.444;2022-11-04T01:19:16;13.98;;;6.88;;
47289;SDS011;33197;52.524;13.444;2022-11-04T01:21:43;11.85;;;6.80;;
47289;SDS011;33197;52.524;13.444;2022-11-04T01:24:11;18.05;;;8.32;;
47289;SDS011;33197;52.524;13.444;2022-11-04T01:26:38;14.23;;;6.47;;
47289;SDS011;33197;52.524;13.444;2022-11-04T01:29:05;12.88;;;6.45;;
47289;SDS011;33197;52.524;13.444;2022-11-04T01:31:32;17.17;;;6.50;;
47289;SDS011;33197;52.524;13.444;2022-11-04T01:33:59;14.52;;;6.93;;
47289;SDS011;33197;52.524;13.444;2022-11-04T01:36:27;12.32;;;7.30;;
47289;SDS011;33197;52.524;13.444;2022-11-04T01:38:55;12.07;;;6.45;;
47289;SDS011;33197;52.524;13.444;2022-11-04T01:41:24;19.58;;;7.65;;
47289;SDS011;33197;52.524;13.444;2022-11-04T01:46:24;14.77;;;7.18;;
47289;SDS011;33197;52.524;13.444;2022-11-04T01:48:52;13.45;;;6.78;;
47289;SDS011;33197;52.524;13.444;2022-11-04T01:51:21;12.50;;;6.35;;
47289;SDS011;33197;52.524;13.444;2022-11-04T01:53:49;17.98;;;7.45;;
47289;SDS011;33197;52.524;13.444;2022-11-04T01:56:17;16.58;;;7.28;;
47289;SDS011;33197;52.524;13.444;2022-11-04T01:58:47;11.77;;;7.28;;
47289;SDS011;33197;52.524;13.444;2022-11-04T02:01:16;11.35;;;6.38;;
47289;SDS011;33197;52.524;13.444;2022-11-04T02:03:46;15.65;;;7.15;;
47289;SDS011;33197;52.524;13.444;2022-11-04T02:06:17;17.85;;;6.85;;
47289;SDS011;33197;52.524;13.444;2022-11-04T02:08:45;11.93;;;6.25;;
47289;SDS011;33197;52.524;13.444;2022-11-04T02:11:12;11.52;;;6.35;;
47289;SDS011;33197;52.524;13.444;2022-11-04T02:13:59;11.80;;;6.53;;
47289;SDS011;33197;52.524;13.444;2022-11-04T02:16:31;15.68;;;7.38;;
47289;SDS011;33197;52.524;13.444;2022-11-04T02:30:35;14.30;;;7.28;;
47289;SDS011;33197;52.524;13.444;2022-11-04T02:36:11;17.20;;;7.43;;
47289;SDS011;33197;52.524;13.444;2022-11-04T02:38:54;15.73;;;7.03;;
47289;SDS011;33197;52.524;13.444;2022-11-04T02:41:52;17.98;;;7.50;;
47289;SDS011;33197;52.524;13.444;2022-11-04T02:44:30;13.55;;;6.93;;
47289;SDS011;33197;52.524;13.444;2022-11-04T02:47:02;15.90;;;7.93;;
47289;SDS011;33197;52.524;13.444;2022-11-04T02:49:37;12.27;;;7.20;;
47289;SDS011;33197;52.524;13.444;2022-11-04T02:52:18;13.32;;;6.68;;
47289;SDS011;33197;52.524;13.444;2022-11-04T02:55:06;13.32;;;7.28;;
47289;SDS011;33197;52.524;13.444;2022-11-04T02:57:38;13.02;;;7.13;;
47289;SDS011;33197;52.524;13.444;2022-11-04T03:00:08;16.17;;;6.85;;
47289;SDS011;33197;52.524;13.444;2022-11-04T03:02:37;11.73;;;6.70;;
47289;SDS011;33197;52.524;13.444;2022-11-04T03:05:08;12.30;;;6.63;;
47289;SDS011;33197;52.524;13.444;2022-11-04T03:07:39;14.27;;;7.55;;
47289;SDS011;33197;52.524;13.444;2022-11-04T03:10:11;16.30;;;7.55;;
47289;SDS011;33197;52.524;13.444;2022-11-04T03:12:44;15.90;;;6.97;;
47289;SDS011;33197;52.524;13.444;2022-11-04T03:15:26;12.00;;;6.72;;
47289;SDS011;33197;52.524;13.444;2022-11-04T03:18:21;19.48;;;7.75;;
47289;SDS011;33197;52.524;13.444;2022-11-04T03:20:55;14.05;;;6.70;;
47289;SDS011;33197;52.524;13.444;2022-11-04T03:23:23;14.35;;;7.25;;
47289;SDS011;33197;52.524;13.444;2022-11-04T03:25:52;16.02;;;6.93;;
47289;SDS011;33197;52.524;13.444;2022-11-04T03:28:26;12.98;;;7.20;;
47289;SDS011;33197;52.524;13.444;2022-11-04T03:31:19;12.38;;;7.50;;
47289;SDS011;33197;52.524;13.444;2022-11-04T03:33:50;14.27;;;7.45;;
47289;SDS011;33197;52.524;13.444;2022-11-04T03:36:18;15.00;;;7.75;;
47289;SDS011;33197;52.524;13.444;2022-11-04T03:38:46;12.68;;;7.32;;
47289;SDS011;33197;52.524;13.444;2022-11-04T03:44:04;15.60;;;7.63;;
47289;SDS011;33197;52.524;13.444;2022-11-04T03:46:31;12.90;;;7.55;;
47289;SDS011;33197;52.524;13.444;2022-11-04T03:48:58;12.82;;;7.35;;
47289;SDS011;33197;52.524;13.444;2022-11-04T03:51:26;13.18;;;7.10;;
47289;SDS011;33197;52.524;13.444;2022-11-04T03:53:53;14.40;;;7.00;;
47289;SDS011;33197;52.524;13.444;2022-11-04T03:56:25;16.65;;;7.40;;
47289;SDS011;33197;52.524;13.444;2022-11-04T04:04:32;18.20;;;7.97;;
47289;SDS011;33197;52.524;13.444;2022-11-04T04:07:13;13.77;;;7.22;;
47289;SDS011;33197;52.524;13.444;2022-11-04T04:09:45;15.23;;;7.40;;
47289;SDS011;33197;52.524;13.444;2022-11-04T04:12:23;14.90;;;7.30;;
47289;SDS011;33197;52.524;13.444;2022-11-04T04:14:54;12.20;;;7.53;;
47289;SDS011;33197;52.524;13.444;2022-11-04T04:20:31;11.30;;;6.33;;
47289;SDS011;33197;52.524;13.444;2022-11-04T04:23:05;11.27;;;6.93;;
47289;SDS011;33197;52.524;13.444;2022-11-04T04:25:52;14.57;;;7.30;;
47289;SDS011;33197;52.524;13.444;2022-11-04T04:28:42;13.02;;;6.95;;
47289;SDS011;33197;52.524;13.444;2022-11-04T04:31:09;13.75;;;7.63;;
47289;SDS011;33197;52.524;13.444;2022-11-04T04:33:38;14.00;;;8.02;;
47289;SDS011;33197;52.524;13.444;2022-11-04T04:36:05;13.48;;;7.40;;
47289;SDS011;33197;52.524;13.444;2022-11-04T04:38:35;14.10;;;8.02;;
47289;SDS011;33197;52.524;13.444;2022-11-04T04:41:27;17.48;;;7.82;;
47289;SDS011;33197;52.524;13.444;2022-11-04T04:44:24;15.75;;;8.38;;
47289;SDS011;33197;52.524;13.444;2022-11-04T04:47:15;16.02;;;7.15;;
47289;SDS011;33197;52.524;13.444;2022-11-04T04:49:52;17.50;;;7.80;;
47289;SDS011;33197;52.524;13.444;2022-11-04T04:52:24;13.77;;;7.53;;
47289;SDS011;33197;52.524;13.444;2022-11-04T04:54:57;16.40;;;7.22;;
47289;SDS011;33197;52.524;13.444;2022-11-04T04:57:24;15.07;;;7.57;;
47289;SDS011;33197;52.524;13.444;2022-11-04T04:59:51;15.20;;;8.25;;
47289;SDS011;33197;52.524;13.444;2022-11-04T05:02:18;11.82;;;6.70;;
47289;SDS011;33197;52.524;13.444;2022-11-04T05:04:46;13.82;;;8.10;;
47289;SDS011;33197;52.524;13.444;2022-11-04T05:07:13;13.25;;;6.97;;
47289;SDS011;33197;52.524;13.444;2022-11-04T05:09:40;13.60;;;8.27;;
47289;SDS011;33197;52.524;13.444;2022-11-04T05:12:07;17.63;;;7.70;;
47289;SDS011;33197;52.524;13.444;2022-11-04T05:14:35;15.68;;;7.70;;
47289;SDS011;33197;52.524;13.444;2022-11-04T05:17:03;15.52;;;8.57;;
47289;SDS011;33197;52.524;13.444;2022-11-04T05:19:30;17.17;;;8.35;;
47289;SDS011;33197;52.524;13.444;2022-11-04T05:21:57;12.82;;;7.93;;
47289;SDS011;33197;52.524;13.444;2022-11-04T05:24:25;15.38;;;9.02;;
47289;SDS011;33197;52.524;13.444;2022-11-04T05:26:52;15.68;;;8.55;;
47289;SDS011;33197;52.524;13.444;2022-11-04T05:29:19;16.13;;;8.30;;
47289;SDS011;33197;52.524;13.444;2022-11-04T05:31:46;14.40;;;7.85;;
47289;SDS011;33197;52.524;13.444;2022-11-04T05:34:13;14.35;;;7.47;;
47289;SDS011;33197;52.524;13.444;2022-11-04T05:36:40;13.00;;;8.63;;
47289;SDS011;33197;52.524;13.444;2022-11-04T05:39:09;16.17;;;8.10;;
47289;SDS011;33197;52.524;13.444;2022-11-04T05:41:38;15.20;;;7.60;;
47289;SDS011;33197;52.524;13.444;2022-11-04T05:44:05;17.20;;;7.13;;
47289;SDS011;33197;52.524;13.444;2022-11-04T05:46:35;16.25;;;7.82;;
47289;SDS011;33197;52.524;13.444;2022-11-04T05:49:02;16.17;;;8.05;;
47289;SDS011;33197;52.524;13.444;2022-11-04T05:51:30;13.57;;;8.07;;
47289;SDS011;33197;52.524;13.444;2022-11-04T05:53:59;14.75;;;7.45;;
47289;SDS011;33197;52.524;13.444;2022-11-04T05:56:26;17.77;;;8.60;;
47289;SDS011;33197;52.524;13.444;2022-11-04T05:58:53;14.98;;;7.93;;
47289;SDS011;33197;52.524;13.444;2022-11-04T06:03:55;15.10;;;7.90;;
47289;SDS011;33197;52.524;13.444;2022-11-04T06:06:23;12.63;;;7.65;;
47289;SDS011;33197;52.524;13.444;2022-11-04T06:08:51;16.10;;;8.38;;
47289;SDS011;33197;52.524;13.444;2022-11-04T06:11:19;17.83;;;8.35;;
47289;SDS011;33197;52.524;13.444;2022-11-04T06:13:46;13.65;;;8.32;;
47289;SDS011;33197;52.524;13.444;2022-11-04T06:16:13;17.67;;;8.05;;
47289;SDS011;33197;52.524;13.444;2022-11-04T06:18:41;16.52;;;7.65;;
47289;SDS011;33197;52.524;13.444;2022-11-04T06:21:09;18.33;;;9.05;;
47289;SDS011;33197;52.524;13.444;2022-11-04T06:23:41;15.38;;;7.18;;
47289;SDS011;33197;52.524;13.444;2022-11-04T06:26:09;13.23;;;8.10;;
47289;SDS011;33197;52.524;13.444;2022-11-04T06:28:37;20.33;;;9.07;;
47289;SDS011;33197;52.524;13.444;2022-11-04T06:31:05;27.23;;;9.43;;
47289;SDS011;33197;52.524;13.444;2022-11-04T06:33:34;17.25;;;8.45;;
47289;SDS011;33197;52.524;13.444;2022-11-04T06:36:03;12.27;;;8.07;;
47289;SDS011;33197;52.524;13.444;2022-11-04T06:38:32;15.70;;;8.90;;
47289;SDS011;33197;52.524;13.444;2022-11-04T06:41:00;17.90;;;8.70;;
47289;SDS011;33197;52.524;13.444;2022-11-04T06:43:28;14.63;;;8.13;;
47289;SDS011;33197;52.524;13.444;2022-11-04T06:45:55;15.60;;;8.63;;
47289;SDS011;33197;52.524;13.444;2022-11-04T06:48:23;14.82;;;8.18;;
47289;SDS011;33197;52.524;13.444;2022-11-04T06:50:51;15.38;;;8.27;;
47289;SDS011;33197;52.524;13.444;2022-11-04T06:53:18;14.75;;;8.48;;
47289;SDS011;33197;52.524;13.444;2022-11-04T06:55:45;18.05;;;8.75;;
47289;SDS011;33197;52.524;13.444;2022-11-04T06:58:12;14.32;;;8.25;;
47289;SDS011;33197;52.524;13.444;2022-11-04T07:00:39;15.23;;;8.85;;
47289;SDS011;33197;52.524;13.444;2022-11-04T07:03:07;20.30;;;9.85;;
47289;SDS011;33197;52.524;13.444;2022-11-04T07:05:36;14.90;;;9.43;;
47289;SDS011;33197;52.524;13.444;2022-11-04T07:08:03;17.15;;;10.90;;
47289;SDS011;33197;52.524;13.444;2022-11-04T07:10:30;21.08;;;11.48;;
47289;SDS011;33197;52.524;13.444;2022-11-04T07:12:57;19.33;;;10.30;;
47289;SDS011;33197;52.524;13.444;2022-11-04T07:15:24;19.15;;;12.07;;
47289;SDS011;33197;52.524;13.444;2022-11-04T07:17:53;17.33;;;11.00;;
47289;SDS011;33197;52.524;13.444;2022-11-04T07:20:20;18.40;;;9.85;;
47289;SDS011;33197;52.524;13.444;2022-11-04T07:22:47;17.48;;;9.43;;
47289;SDS011;33197;52.524;13.444;2022-11-04T07:25:14;15.43;;;10.52;;
47289;SDS011;33197;52.524;13.444;2022-11-04T07:27:42;16.67;;;11.00;;
47289;SDS011;33197;52.524;13.444;2022-11-04T07:30:09;18.13;;;10.48;;
47289;SDS011;33197;52.524;13.444;2022-11-04T07:32:36;15.02;;;9.38;;
47289;SDS011;33197;52.524;13.444;2022-11-04T07:35:03;14.18;;;10.90;;
47289;SDS011;33197;52.524;13.444;2022-11-04T07:37:31;17.60;;;9.82;;
47289;SDS011;33197;52.524;13.444;2022-11-04T07:39:58;12.52;;;10.23;;
47289;SDS011;33197;52.524;13.444;2022-11-04T07:42:25;16.17;;;10.23;;
47289;SDS011;33197;52.524;13.444;2022-11-04T07:44:53;17.65;;;10.65;;
47289;SDS011;33197;52.524;13.444;2022-11-04T07:47:20;13.25;;;8.93;;
47289;SDS011;33197;52.524;13.444;2022-11-04T07:49:47;28.80;;;11.45;;
47289;SDS011;33197;52.524;13.444;2022-11-04T07:52:15;26.67;;;12.13;;
47289;SDS011;33197;52.524;13.444;2022-11-04T07:54:42;20.90;;;10.20;;
47289;SDS011;33197;52.524;13.444;2022-11-04T07:57:09;21.58;;;10.98;;
47289;SDS011;33197;52.524;13.444;2022-11-04T07:59:36;27.52;;;12.93;;
47289;SDS011;33197;52.524;13.444;2022-11-04T08:02:04;27.25;;;13.40;;
47289;SDS011;33197;52.524;13.444;2022-11-04T08:04:31;16.65;;;10.80;;
47289;SDS011;33197;52.524;13.444;2022-11-04T08:06:58;17.80;;;11.30;;
47289;SDS011;33197;52.524;13.444;2022-11-04T08:09:26;14.82;;;10.02;;
47289;SDS011;33197;52.524;13.444;2022-11-04T08:11:53;17.45;;;10.40;;
47289;SDS011;33197;52.524;13.444;2022-11-04T08:14:20;16.77;;;9.65;;
47289;SDS011;33197;52.524;13.444;2022-11-04T08:16:48;19.80;;;10.48;;
47289;SDS011;33197;52.524;13.444;2022-11-04T08:19:16;15.68;;;9.95;;
47289;SDS011;33197;52.524;13.444;2022-11-04T08:21:44;17.20;;;10.98;;
47289;SDS011;33197;52.524;13.444;2022-11-04T08:24:11;15.32;;;10.90;;
47289;SDS011;33197;52.524;13.444;2022-11-04T08:26:38;15.85;;;11.05;;
47289;SDS011;33197;52.524;13.444;2022-11-04T08:29:08;18.90;;;10.48;;
47289;SDS011;33197;52.524;13.444;2022-11-04T08:31:35;17.17;;;9.73;;
47289;SDS011;33197;52.524;13.444;2022-11-04T08:34:03;16.75;;;10.38;;
47289;SDS011;33197;52.524;13.444;2022-11-04T08:36:33;19.85;;;11.20;;
47289;SDS011;33197;52.524;13.444;2022-11-04T08:39:03;18.70;;;12.02;;
47289;SDS011;33197;52.524;13.444;2022-11-04T08:41:37;15.77;;;10.98;;
47289;SDS011;33197;52.524;13.444;2022-11-04T08:44:06;18.60;;;11.55;;
47289;SDS011;33197;52.524;13.444;2022-11-04T08:46:35;16.45;;;11.52;;
47289;SDS011;33197;52.524;13.444;2022-11-04T08:49:04;18.65;;;11.38;;
47289;SDS011;33197;52.524;13.444;2022-11-04T08:51:38;15.68;;;11.90;;
47289;SDS011;33197;52.524;13.444;2022-11-04T08:54:06;18.50;;;11.50;;
47289;SDS011;33197;52.524;13.444;2022-11-04T08:56:34;17.48;;;11.32;;
47289;SDS011;33197;52.524;13.444;2022-11-04T08:59:03;16.65;;;10.55;;
47289;SDS011;33197;52.524;13.444;2022-11-04T09:01:31;15.23;;;9.90;;
47289;SDS011;33197;52.524;13.444;2022-11-04T09:04:02;13.93;;;10.20;;
47289;SDS011;33197;52.524;13.444;2022-11-04T09:06:32;14.73;;;10.40;;
47289;SDS011;33197;52.524;13.444;2022-11-04T09:09:02;16.48;;;9.82;;
47289;SDS011;33197;52.524;13.444;2022-11-04T09:11:31;18.48;;;9.85;;
47289;SDS011;33197;52.524;13.444;2022-11-04T09:13:59;19.75;;;8.80;;
47289;SDS011;33197;52.524;13.444;2022-11-04T09:16:30;13.40;;;9.43;;
47289;SDS011;33197;52.524;13.444;2022-11-04T09:18:58;15.15;;;9.25;;
47289;SDS011;33197;52.524;13.444;2022-11-04T09:21:26;17.00;;;9.57;;
47289;SDS011;33197;52.524;13.444;2022-11-04T09:23:54;13.68;;;9.65;;
47289;SDS011;33197;52.524;13.444;2022-11-04T09:26:22;14.93;;;10.02;;
47289;SDS011;33197;52.524;13.444;2022-11-04T09:28:53;16.10;;;9.75;;
47289;SDS011;33197;52.524;13.444;2022-11-04T09:31:21;17.40;;;9.73;;
47289;SDS011;33197;52.524;13.444;2022-11-04T09:33:48;17.63;;;10.10;;
47289;SDS011;33197;52.524;13.444;2022-11-04T09:36:16;17.95;;;10.10;;
47289;SDS011;33197;52.524;13.444;2022-11-04T09:38:43;14.60;;;10.05;;
47289;SDS011;33197;52.524;13.444;2022-11-04T09:43:57;17.15;;;9.93;;
47289;SDS011;33197;52.524;13.444;2022-11-04T09:49:14;18.15;;;10.00;;
47289;SDS011;33197;52.524;13.444;2022-11-04T09:51:42;13.48;;;8.70;;
47289;SDS011;33197;52.524;13.444;2022-11-04T09:54:22;11.88;;;8.45;;
47289;SDS011;33197;52.524;13.444;2022-11-04T09:56:51;15.07;;;9.60;;
47289;SDS011;33197;52.524;13.444;2022-11-04T09:59:23;15.05;;;9.55;;
47289;SDS011;33197;52.524;13.444;2022-11-04T10:04:42;14.77;;;10.63;;
47289;SDS011;33197;52.524;13.444;2022-11-04T10:12:45;18.73;;;12.32;;
47289;SDS011;33197;52.524;13.444;2022-11-04T10:15:29;15.82;;;10.95;;
47289;SDS011;33197;52.524;13.444;2022-11-04T10:18:20;21.13;;;11.73;;
47289;SDS011;33197;52.524;13.444;2022-11-04T10:21:18;15.43;;;8.73;;
47289;SDS011;33197;52.524;13.444;2022-11-04T10:26:36;15.15;;;9.02;;
47289;SDS011;33197;52.524;13.444;2022-11-04T10:29:17;16.35;;;9.35;;
47289;SDS011;33197;52.524;13.444;2022-11-04T10:31:51;14.63;;;9.48;;
47289;SDS011;33197;52.524;13.444;2022-11-04T10:34:22;16.75;;;9.30;;
47289;SDS011;33197;52.524;13.444;2022-11-04T10:39:25;14.85;;;10.25;;
47289;SDS011;33197;52.524;13.444;2022-11-04T10:41:54;16.58;;;10.50;;
47289;SDS011;33197;52.524;13.444;2022-11-04T10:46:53;16.90;;;9.80;;
47289;SDS011;33197;52.524;13.444;2022-11-04T10:52:35;10.15;;;7.53;;
47289;SDS011;33197;52.524;13.444;2022-11-04T10:58:20;10.10;;;7.45;;
47289;SDS011;33197;52.524;13.444;2022-11-04T11:00:50;12.68;;;7.35;;
47289;SDS011;33197;52.524;13.444;2022-11-04T11:03:28;12.68;;;7.10;;
47289;SDS011;33197;52.524;13.444;2022-11-04T11:06:10;9.23;;;6.80;;
47289;SDS011;33197;52.524;13.444;2022-11-04T11:08:42;10.98;;;6.63;;
47289;SDS011;33197;52.524;13.444;2022-11-04T11:11:10;11.20;;;7.88;;
47289;SDS011;33197;52.524;13.444;2022-11-04T11:13:39;11.00;;;7.90;;
47289;SDS011;33197;52.524;13.444;2022-11-04T11:16:17;11.57;;;8.07;;
47289;SDS011;33197;52.524;13.444;2022-11-04T11:19:05;12.82;;;7.30;;
47289;SDS011;33197;52.524;13.444;2022-11-04T11:21:43;9.68;;;7.50;;
47289;SDS011;33197;52.524;13.444;2022-11-04T11:24:25;10.82;;;7.80;;
47289;SDS011;33197;52.524;13.444;2022-11-04T11:26:56;13.38;;;7.45;;
47289;SDS011;33197;52.524;13.444;2022-11-04T11:29:26;13.63;;;8.95;;
47289;SDS011;33197;52.524;13.444;2022-11-04T11:31:55;19.00;;;7.75;;
47289;SDS011;33197;52.524;13.444;2022-11-04T11:34:27;9.73;;;8.20;;
47289;SDS011;33197;52.524;13.444;2022-11-04T11:36:58;11.80;;;7.30;;
47289;SDS011;33197;52.524;13.444;2022-11-04T11:39:29;8.93;;;6.82;;
47289;SDS011;33197;52.524;13.444;2022-11-04T11:41:58;12.75;;;7.57;;
47289;SDS011;33197;52.524;13.444;2022-11-04T11:44:29;10.52;;;7.20;;
47289;SDS011;33197;52.524;13.444;2022-11-04T11:47:03;12.35;;;8.70;;
47289;SDS011;33197;52.524;13.444;2022-11-04T11:49:34;11.15;;;7.45;;
47289;SDS011;33197;52.524;13.444;2022-11-04T11:52:16;13.40;;;8.20;;
47289;SDS011;33197;52.524;13.444;2022-11-04T11:54:51;14.27;;;8.38;;
47289;SDS011;33197;52.524;13.444;2022-11-04T11:57:30;14.48;;;9.18;;
47289;SDS011;33197;52.524;13.444;2022-11-04T12:00:03;14.52;;;9.57;;
47289;SDS011;33197;52.524;13.444;2022-11-04T12:03:03;16.75;;;10.32;;
47289;SDS011;33197;52.524;13.444;2022-11-04T12:06:06;11.95;;;9.93;;
47289;SDS011;33197;52.524;13.444;2022-11-04T12:09:02;12.38;;;11.07;;
47289;SDS011;33197;52.524;13.444;2022-11-04T12:11:50;12.82;;;10.52;;
47289;SDS011;33197;52.524;13.444;2022-11-04T12:23:38;20.20;;;10.32;;
47289;SDS011;33197;52.524;13.444;2022-11-04T12:31:34;11.65;;;6.93;;
47289;SDS011;33197;52.524;13.444;2022-11-04T12:37:15;7.47;;;6.68;;
47289;SDS011;33197;52.524;13.444;2022-11-04T12:40:04;9.20;;;6.50;;
47289;SDS011;33197;52.524;13.444;2022-11-04T12:47:50;9.43;;;6.97;;
47289;SDS011;33197;52.524;13.444;2022-11-04T12:50:23;7.63;;;6.60;;
47289;SDS011;33197;52.524;13.444;2022-11-04T12:58:15;9.20;;;7.30;;
47289;SDS011;33197;52.524;13.444;2022-11-04T13:00:56;9.18;;;7.30;;
47289;SDS011;33197;52.524;13.444;2022-11-04T13:06:15;8.02;;;7.22;;
47289;SDS011;33197;52.524;13.444;2022-11-04T13:12:00;8.63;;;7.22;;
47289;SDS011;33197;52.524;13.444;2022-11-04T13:14:32;8.27;;;6.50;;
47289;SDS011;33197;52.524;13.444;2022-11-04T13:17:06;15.77;;;9.55;;
47289;SDS011;33197;52.524;13.444;2022-11-04T13:22:19;10.73;;;7.90;;
47289;SDS011;33197;52.524;13.444;2022-11-04T13:24:56;10.88;;;7.63;;
47289;SDS011;33197;52.524;13.444;2022-11-04T13:27:29;12.30;;;7.65;;
47289;SDS011;33197;52.524;13.444;2022-11-04T13:30:20;10.63;;;8.05;;
47289;SDS011;33197;52.524;13.444;2022-11-04T13:33:28;9.13;;;7.38;;
47289;SDS011;33197;52.524;13.444;2022-11-04T13:36:18;8.52;;;7.13;;
47289;SDS011;33197;52.524;13.444;2022-11-04T13:41:34;12.48;;;8.30;;
47289;SDS011;33197;52.524;13.444;2022-11-04T13:44:24;13.40;;;7.93;;
47289;SDS011;33197;52.524;13.444;2022-11-04T13:46:54;9.90;;;7.60;;
47289;SDS011;33197;52.524;13.444;2022-11-04T13:49:27;8.32;;;7.50;;
47289;SDS011;33197;52.524;13.444;2022-11-04T13:54:39;10.95;;;7.78;;
47289;SDS011;33197;52.524;13.444;2022-11-04T13:57:12;11.93;;;7.95;;
47289;SDS011;33197;52.524;13.444;2022-11-04T14:02:42;8.80;;;7.55;;
47289;SDS011;33197;52.524;13.444;2022-11-04T14:18:44;10.20;;;8.05;;
47289;SDS011;33197;52.524;13.444;2022-11-04T14:21:15;11.95;;;8.95;;
47289;SDS011;33197;52.524;13.444;2022-11-04T14:23:44;11.93;;;8.65;;
47289;SDS011;33197;52.524;13.444;2022-11-04T14:26:14;11.57;;;8.00;;
47289;SDS011;33197;52.524;13.444;2022-11-04T14:28:45;9.70;;;7.43;;
47289;SDS011;33197;52.524;13.444;2022-11-04T14:31:14;13.57;;;8.35;;
47289;SDS011;33197;52.524;13.444;2022-11-04T14:34:00;10.85;;;7.85;;
47289;SDS011;33197;52.524;13.444;2022-11-04T14:39:03;10.85;;;8.35;;
47289;SDS011;33197;52.524;13.444;2022-11-04T14:41:51;11.35;;;8.45;;
47289;SDS011;33197;52.524;13.444;2022-11-04T14:44:34;11.93;;;8.65;;
47289;SDS011;33197;52.524;13.444;2022-11-04T14:49:59;9.85;;;8.40;;
47289;SDS011;33197;52.524;13.444;2022-11-04T14:52:30;10.75;;;7.70;;
47289;SDS011;33197;52.524;13.444;2022-11-04T14:57:40;11.50;;;8.40;;
47289;SDS011;33197;52.524;13.444;2022-11-04T15:00:16;10.07;;;8.95;;
47289;SDS011;33197;52.524;13.444;2022-11-04T15:06:06;9.13;;;8.18;;
47289;SDS011;33197;52.524;13.444;2022-11-04T15:13:47;8.85;;;7.32;;
47289;SDS011;33197;52.524;13.444;2022-11-04T15:16:25;13.38;;;9.68;;
47289;SDS011;33197;52.524;13.444;2022-11-04T15:18:55;12.75;;;9.32;;
47289;SDS011;33197;52.524;13.444;2022-11-04T15:21:23;15.43;;;9.65;;
47289;SDS011;33197;52.524;13.444;2022-11-04T15:23:53;11.20;;;8.80;;
47289;SDS011;33197;52.524;13.444;2022-11-04T15:26:25;11.60;;;9.02;;
47289;SDS011;33197;52.524;13.444;2022-11-04T15:28:57;11.37;;;9.27;;
47289;SDS011;33197;52.524;13.444;2022-11-04T15:31:26;12.70;;;8.20;;
47289;SDS011;33197;52.524;13.444;2022-11-04T15:33:58;11.45;;;8.45;;
47289;SDS011;33197;52.524;13.444;2022-11-04T15:36:27;9.25;;;8.30;;
47289;SDS011;33197;52.524;13.444;2022-11-04T15:38:58;9.75;;;8.30;;
47289;SDS011;33197;52.524;13.444;2022-11-04T15:41:29;10.27;;;8.32;;
47289;SDS011;33197;52.524;13.444;2022-11-04T15:44:28;10.10;;;7.43;;
47289;SDS011;33197;52.524;13.444;2022-11-04T15:46:58;12.45;;;8.45;;
47289;SDS011;33197;52.524;13.444;2022-11-04T15:49:28;9.85;;;7.47;;
47289;SDS011;33197;52.524;13.444;2022-11-04T15:51:57;10.63;;;8.10;;
47289;SDS011;33197;52.524;13.444;2022-11-04T15:54:29;9.02;;;8.10;;
47289;SDS011;33197;52.524;13.444;2022-11-04T15:56:59;13.68;;;9.00;;
47289;SDS011;33197;52.524;13.444;2022-11-04T15:59:45;8.85;;;7.25;;
47289;SDS011;33197;52.524;13.444;2022-11-04T16:02:28;10.07;;;8.30;;
47289;SDS011;33197;52.524;13.444;2022-11-04T16:07:42;10.20;;;8.57;;
47289;SDS011;33197;52.524;13.444;2022-11-04T16:10:35;9.32;;;7.82;;
47289;SDS011;33197;52.524;13.444;2022-11-04T16:15:47;14.20;;;8.23;;
47289;SDS011;33197;52.524;13.444;2022-11-04T16:24:03;9.27;;;7.95;;
47289;SDS011;33197;52.524;13.444;2022-11-04T16:26:40;10.90;;;7.93;;
47289;SDS011;33197;52.524;13.444;2022-11-04T16:29:17;9.60;;;8.60;;
47289;SDS011;33197;52.524;13.444;2022-11-04T16:34:50;12.25;;;7.65;;
47289;SDS011;33197;52.524;13.444;2022-11-04T16:37:18;10.80;;;9.05;;
47289;SDS011;33197;52.524;13.444;2022-11-04T16:39:46;11.48;;;8.05;;
47289;SDS011;33197;52.524;13.444;2022-11-04T16:42:13;9.63;;;8.55;;
47289;SDS011;33197;52.524;13.444;2022-11-04T16:44:45;11.15;;;9.00;;
47289;SDS011;33197;52.524;13.444;2022-11-04T16:47:13;11.00;;;8.85;;
47289;SDS011;33197;52.524;13.444;2022-11-04T16:49:41;10.90;;;8.98;;
47289;SDS011;33197;52.524;13.444;2022-11-04T16:52:08;8.65;;;7.75;;
47289;SDS011;33197;52.524;13.444;2022-11-04T16:54:40;10.45;;;8.90;;
47289;SDS011;33197;52.524;13.444;2022-11-04T16:57:08;9.85;;;8.43;;
47289;SDS011;33197;52.524;13.444;2022-11-04T16:59:37;10.10;;;8.82;;
47289;SDS011;33197;52.524;13.444;2022-11-04T17:02:27;10.23;;;8.57;;
47289;SDS011;33197;52.524;13.444;2022-11-04T17:04:57;12.38;;;8.20;;
47289;SDS011;33197;52.524;13.444;2022-11-04T17:07:24;11.05;;;8.48;;
47289;SDS011;33197;52.524;13.444;2022-11-04T17:10:13;10.02;;;8.75;;
47289;SDS011;33197;52.524;13.444;2022-11-04T17:12:42;11.32;;;8.98;;
47289;SDS011;33197;52.524;13.444;2022-11-04T17:15:10;11.25;;;9.38;;
47289;SDS011;33197;52.524;13.444;2022-11-04T17:17:38;9.60;;;8.45;;